sensor_id;sensor_type;location;lat;lon;timestamp;temperature;humidity
20714;DHT22;10518;50.742;4.226;2023-02-28T00:00:51;1.90;99.90
20714;DHT22;10518;50.742;4.226;2023-02-28T00:03:17;2.10;99.90
20714;DHT22;10518;50.742;4.226;2023-02-28T00:05:42;2.10;99.90
20714;DHT22;10518;50.742;4.226;2023-02-28T00:08:09;2.10;99.90
20714;DHT22;10518;50.742;4.226;2023-02-28T00:10:35;2.10;99.90
20714;DHT22;10518;50.742;4.226;2023-02-28T00:13:03;1.80;99.90
20714;DHT22;10518;50.742;4.226;2023-02-28T00:15:30;1.80;99.90
20714;DHT22;10518;50.742;4.226;2023-02-28T00:17:55;1.80;99.90
20714;DHT22;10518;50.742;4.226;2023-02-28T00:20:21;1.90;99.90
20714;DHT22;10518;50.742;4.226;2023-02-28T00:22:49;2.10;99.90
20714;DHT22;10518;50.742;4.226;2023-02-28T00:25:19;2.20;99.90
20714;DHT22;10518;50.742;4.226;2023-02-28T00:27:45;2.20;99.90
20714;DHT22;10518;50.742;4.226;2023-02-28T00:30:13;2.20;99.90
20714;DHT22;10518;50.742;4.226;2023-02-28T00:32:39;2.30;99.90
20714;DHT22;10518;50.742;4.226;2023-02-28T00:35:05;2.20;99.90
20714;DHT22;10518;50.742;4.226;2023-02-28T00:37:31;2.10;99.90
20714;DHT22;10518;50.742;4.226;2023-02-28T00:39:57;2.00;99.90
20714;DHT22;10518;50.742;4.226;2023-02-28T00:42:23;1.70;99.90
20714;DHT22;10518;50.742;4.226;2023-02-28T00:44:49;1.50;99.90
20714;DHT22;10518;50.742;4.226;2023-02-28T00:47:15;1.70;99.90
20714;DHT22;10518;50.742;4.226;2023-02-28T00:49:41;1.50;99.90
20714;DHT22;10518;50.742;4.226;2023-02-28T00:52:06;1.40;99.90
20714;DHT22;10518;50.742;4.226;2023-02-28T00:54:32;1.50;99.90
20714;DHT22;10518;50.742;4.226;2023-02-28T00:56:58;1.50;99.90
20714;DHT22;10518;50.742;4.226;2023-02-28T00:59:24;1.30;99.90
20714;DHT22;10518;50.742;4.226;2023-02-28T01:01:49;1.40;99.90
20714;DHT22;10518;50.742;4.226;2023-02-28T01:04:15;1.60;99.90
20714;DHT22;10518;50.742;4.226;2023-02-28T01:06:41;1.40;99.90
20714;DHT22;10518;50.742;4.226;2023-02-28T01:09:08;1.40;99.90
20714;DHT22;10518;50.742;4.226;2023-02-28T01:11:34;1.40;99.90
20714;DHT22;10518;50.742;4.226;2023-02-28T01:14:00;1.30;99.90
20714;DHT22;10518;50.742;4.226;2023-02-28T01:16:26;1.20;99.90
20714;DHT22;10518;50.742;4.226;2023-02-28T01:18:52;1.20;99.90
20714;DHT22;10518;50.742;4.226;2023-02-28T01:21:20;1.20;99.90
20714;DHT22;10518;50.742;4.226;2023-02-28T01:23:46;1.20;99.90
20714;DHT22;10518;50.742;4.226;2023-02-28T01:26:15;1.20;99.90
20714;DHT22;10518;50.742;4.226;2023-02-28T01:28:41;1.20;99.90
20714;DHT22;10518;50.742;4.226;2023-02-28T01:31:08;1.20;99.90
20714;DHT22;10518;50.742;4.226;2023-02-28T01:33:34;1.20;99.90
20714;DHT22;10518;50.742;4.226;2023-02-28T01:36:02;1.30;99.90
20714;DHT22;10518;50.742;4.226;2023-02-28T01:38:28;1.40;99.90
20714;DHT22;10518;50.742;4.226;2023-02-28T01:40:54;1.30;99.90
20714;DHT22;10518;50.742;4.226;2023-02-28T01:43:26;1.20;99.90
20714;DHT22;10518;50.742;4.226;2023-02-28T01:45:56;1.20;99.90
20714;DHT22;10518;50.742;4.226;2023-02-28T01:48:29;1.20;99.90
20714;DHT22;10518;50.742;4.226;2023-02-28T01:50:59;1.20;99.90
20714;DHT22;10518;50.742;4.226;2023-02-28T01:53:36;1.10;99.90
20714;DHT22;10518;50.742;4.226;2023-02-28T01:56:04;1.00;99.90
20714;DHT22;10518;50.742;4.226;2023-02-28T01:58:31;1.10;99.90
20714;DHT22;10518;50.742;4.226;2023-02-28T02:00:57;1.10;99.90
20714;DHT22;10518;50.742;4.226;2023-02-28T02:03:23;1.10;99.90
20714;DHT22;10518;50.742;4.226;2023-02-28T02:05:49;1.10;99.90
20714;DHT22;10518;50.742;4.226;2023-02-28T02:08:26;1.10;99.90
20714;DHT22;10518;50.742;4.226;2023-02-28T02:10:59;1.00;99.90
20714;DHT22;10518;50.742;4.226;2023-02-28T02:19:35;0.90;99.90
20714;DHT22;10518;50.742;4.226;2023-02-28T02:36:26;0.90;99.90
20714;DHT22;10518;50.742;4.226;2023-02-28T02:39:04;0.80;99.90
20714;DHT22;10518;50.742;4.226;2023-02-28T02:41:47;0.60;99.90
20714;DHT22;10518;50.742;4.226;2023-02-28T02:44:39;0.60;99.90
20714;DHT22;10518;50.742;4.226;2023-02-28T02:47:17;0.70;99.90
20714;DHT22;10518;50.742;4.226;2023-02-28T02:49:48;0.60;99.90
20714;DHT22;10518;50.742;4.226;2023-02-28T02:52:18;0.50;99.90
20714;DHT22;10518;50.742;4.226;2023-02-28T02:54:45;0.50;99.90
20714;DHT22;10518;50.742;4.226;2023-02-28T02:57:58;0.50;99.90
20714;DHT22;10518;50.742;4.226;2023-02-28T03:00:18;0.50;99.90
20714;DHT22;10518;50.742;4.226;2023-02-28T03:02:47;0.40;99.90
20714;DHT22;10518;50.742;4.226;2023-02-28T03:05:26;0.50;99.90
20714;DHT22;10518;50.742;4.226;2023-02-28T03:07:52;0.60;99.90
20714;DHT22;10518;50.742;4.226;2023-02-28T03:10:27;0.50;99.90
20714;DHT22;10518;50.742;4.226;2023-02-28T03:13:10;0.50;99.90
20714;DHT22;10518;50.742;4.226;2023-02-28T03:15:49;0.50;99.90
20714;DHT22;10518;50.742;4.226;2023-02-28T03:18:30;0.60;99.90
20714;DHT22;10518;50.742;4.226;2023-02-28T03:21:06;0.60;99.90
20714;DHT22;10518;50.742;4.226;2023-02-28T03:23:44;0.60;99.90
20714;DHT22;10518;50.742;4.226;2023-02-28T03:26:21;0.50;99.90
20714;DHT22;10518;50.742;4.226;2023-02-28T03:28:52;0.40;99.90
20714;DHT22;10518;50.742;4.226;2023-02-28T03:31:38;0.40;99.90
20714;DHT22;10518;50.742;4.226;2023-02-28T03:34:32;0.40;99.90
20714;DHT22;10518;50.742;4.226;2023-02-28T03:37:03;0.40;99.90
20714;DHT22;10518;50.742;4.226;2023-02-28T03:39:34;0.40;99.90
20714;DHT22;10518;50.742;4.226;2023-02-28T03:42:07;0.60;99.90
20714;DHT22;10518;50.742;4.226;2023-02-28T03:47:32;0.60;99.90
20714;DHT22;10518;50.742;4.226;2023-02-28T03:50:45;0.50;99.90
20714;DHT22;10518;50.742;4.226;2023-02-28T03:52:58;0.40;99.90
20714;DHT22;10518;50.742;4.226;2023-02-28T03:55:30;0.50;99.90
20714;DHT22;10518;50.742;4.226;2023-02-28T03:58:04;0.30;99.90
20714;DHT22;10518;50.742;4.226;2023-02-28T04:01:04;0.20;99.90
20714;DHT22;10518;50.742;4.226;2023-02-28T04:03:35;0.10;99.90
20714;DHT22;10518;50.742;4.226;2023-02-28T04:06:01;0.10;99.90
20714;DHT22;10518;50.742;4.226;2023-02-28T04:08:27;0.20;99.90
20714;DHT22;10518;50.742;4.226;2023-02-28T04:11:07;0.20;99.90
20714;DHT22;10518;50.742;4.226;2023-02-28T04:13:34;0.20;99.90
20714;DHT22;10518;50.742;4.226;2023-02-28T04:15:59;0.30;99.90
20714;DHT22;10518;50.742;4.226;2023-02-28T04:18:25;0.30;99.90
20714;DHT22;10518;50.742;4.226;2023-02-28T04:20:50;0.30;99.90
20714;DHT22;10518;50.742;4.226;2023-02-28T04:23:16;0.30;99.90
20714;DHT22;10518;50.742;4.226;2023-02-28T04:25:41;0.30;99.90
20714;DHT22;10518;50.742;4.226;2023-02-28T04:28:07;0.20;99.90
20714;DHT22;10518;50.742;4.226;2023-02-28T04:30:33;0.20;99.90
20714;DHT22;10518;50.742;4.226;2023-02-28T04:32:59;0.40;99.90
20714;DHT22;10518;50.742;4.226;2023-02-28T04:35:25;0.30;99.90
20714;DHT22;10518;50.742;4.226;2023-02-28T04:37:50;0.30;99.90
20714;DHT22;10518;50.742;4.226;2023-02-28T04:40:16;0.20;99.90
20714;DHT22;10518;50.742;4.226;2023-02-28T04:42:41;0.10;99.90
20714;DHT22;10518;50.742;4.226;2023-02-28T04:45:07;0.10;99.90
20714;DHT22;10518;50.742;4.226;2023-02-28T04:47:35;0.00;99.90
20714;DHT22;10518;50.742;4.226;2023-02-28T04:50:01;0.00;99.90
20714;DHT22;10518;50.742;4.226;2023-02-28T04:52:27;0.10;99.90
20714;DHT22;10518;50.742;4.226;2023-02-28T04:54:53;0.10;99.90
20714;DHT22;10518;50.742;4.226;2023-02-28T04:57:18;0.10;99.90
20714;DHT22;10518;50.742;4.226;2023-02-28T04:59:44;0.00;99.90
20714;DHT22;10518;50.742;4.226;2023-02-28T05:02:10;-0.10;99.90
20714;DHT22;10518;50.742;4.226;2023-02-28T05:04:36;0.10;99.90
20714;DHT22;10518;50.742;4.226;2023-02-28T05:07:02;0.10;99.90
20714;DHT22;10518;50.742;4.226;2023-02-28T05:09:28;0.00;99.90
20714;DHT22;10518;50.742;4.226;2023-02-28T05:11:54;0.10;99.90
20714;DHT22;10518;50.742;4.226;2023-02-28T05:14:20;0.00;99.90
20714;DHT22;10518;50.742;4.226;2023-02-28T05:16:46;0.10;99.90
20714;DHT22;10518;50.742;4.226;2023-02-28T05:19:12;0.10;99.90
20714;DHT22;10518;50.742;4.226;2023-02-28T05:21:48;0.10;99.90
20714;DHT22;10518;50.742;4.226;2023-02-28T05:24:14;0.00;99.90
20714;DHT22;10518;50.742;4.226;2023-02-28T05:26:42;0.10;99.90
20714;DHT22;10518;50.742;4.226;2023-02-28T05:29:08;0.10;99.90
20714;DHT22;10518;50.742;4.226;2023-02-28T05:31:34;0.20;99.90
20714;DHT22;10518;50.742;4.226;2023-02-28T05:34:00;0.30;99.90
20714;DHT22;10518;50.742;4.226;2023-02-28T05:36:26;0.30;99.90
20714;DHT22;10518;50.742;4.226;2023-02-28T05:38:51;0.30;99.90
20714;DHT22;10518;50.742;4.226;2023-02-28T05:41:18;0.40;99.90
20714;DHT22;10518;50.742;4.226;2023-02-28T05:43:44;0.60;99.90
20714;DHT22;10518;50.742;4.226;2023-02-28T05:46:11;0.60;99.90
20714;DHT22;10518;50.742;4.226;2023-02-28T05:48:38;0.40;99.90
20714;DHT22;10518;50.742;4.226;2023-02-28T05:51:05;0.40;99.90
20714;DHT22;10518;50.742;4.226;2023-02-28T05:53:31;0.50;99.90
20714;DHT22;10518;50.742;4.226;2023-02-28T05:55:57;0.50;99.90
20714;DHT22;10518;50.742;4.226;2023-02-28T05:58:23;0.60;99.90
20714;DHT22;10518;50.742;4.226;2023-02-28T06:00:49;0.60;99.90
20714;DHT22;10518;50.742;4.226;2023-02-28T06:03:14;0.50;99.90
20714;DHT22;10518;50.742;4.226;2023-02-28T06:05:40;0.60;99.90
20714;DHT22;10518;50.742;4.226;2023-02-28T06:08:06;0.40;99.90
20714;DHT22;10518;50.742;4.226;2023-02-28T06:10:33;0.30;99.90
20714;DHT22;10518;50.742;4.226;2023-02-28T06:13:00;0.40;99.90
20714;DHT22;10518;50.742;4.226;2023-02-28T06:15:28;0.50;99.90
20714;DHT22;10518;50.742;4.226;2023-02-28T06:17:54;0.40;99.90
20714;DHT22;10518;50.742;4.226;2023-02-28T06:20:22;0.40;99.90
20714;DHT22;10518;50.742;4.226;2023-02-28T06:22:48;0.50;99.90
20714;DHT22;10518;50.742;4.226;2023-02-28T06:25:16;0.60;99.90
20714;DHT22;10518;50.742;4.226;2023-02-28T06:27:41;0.90;99.90
20714;DHT22;10518;50.742;4.226;2023-02-28T06:30:09;1.00;99.90
20714;DHT22;10518;50.742;4.226;2023-02-28T06:32:34;1.20;99.90
20714;DHT22;10518;50.742;4.226;2023-02-28T06:35:01;1.20;99.90
20714;DHT22;10518;50.742;4.226;2023-02-28T06:37:27;1.40;99.90
20714;DHT22;10518;50.742;4.226;2023-02-28T06:39:53;1.40;99.90
20714;DHT22;10518;50.742;4.226;2023-02-28T06:42:21;1.60;99.90
20714;DHT22;10518;50.742;4.226;2023-02-28T06:44:47;1.50;99.90
20714;DHT22;10518;50.742;4.226;2023-02-28T06:47:13;1.30;99.90
20714;DHT22;10518;50.742;4.226;2023-02-28T06:49:39;1.30;99.90
20714;DHT22;10518;50.742;4.226;2023-02-28T06:52:05;1.30;99.90
20714;DHT22;10518;50.742;4.226;2023-02-28T06:54:30;1.50;99.90
20714;DHT22;10518;50.742;4.226;2023-02-28T06:56:57;1.70;99.90
20714;DHT22;10518;50.742;4.226;2023-02-28T06:59:23;1.60;99.90
20714;DHT22;10518;50.742;4.226;2023-02-28T07:01:49;1.60;99.90
20714;DHT22;10518;50.742;4.226;2023-02-28T07:04:14;1.60;99.90
20714;DHT22;10518;50.742;4.226;2023-02-28T07:06:40;1.60;99.90
20714;DHT22;10518;50.742;4.226;2023-02-28T07:09:05;1.50;99.90
20714;DHT22;10518;50.742;4.226;2023-02-28T07:11:31;1.70;99.90
20714;DHT22;10518;50.742;4.226;2023-02-28T07:13:57;1.90;99.90
20714;DHT22;10518;50.742;4.226;2023-02-28T07:16:24;1.90;99.90
20714;DHT22;10518;50.742;4.226;2023-02-28T07:18:52;2.10;99.90
20714;DHT22;10518;50.742;4.226;2023-02-28T07:21:18;2.30;99.90
20714;DHT22;10518;50.742;4.226;2023-02-28T07:23:43;2.10;99.90
20714;DHT22;10518;50.742;4.226;2023-02-28T07:26:13;2.00;99.90
20714;DHT22;10518;50.742;4.226;2023-02-28T07:28:40;2.10;99.90
20714;DHT22;10518;50.742;4.226;2023-02-28T07:31:07;2.20;99.90
20714;DHT22;10518;50.742;4.226;2023-02-28T07:33:33;2.40;99.90
20714;DHT22;10518;50.742;4.226;2023-02-28T07:36:28;2.70;99.90
20714;DHT22;10518;50.742;4.226;2023-02-28T07:38:54;2.50;99.90
20714;DHT22;10518;50.742;4.226;2023-02-28T07:41:21;2.60;99.90
20714;DHT22;10518;50.742;4.226;2023-02-28T07:43:47;2.50;99.90
20714;DHT22;10518;50.742;4.226;2023-02-28T07:46:15;2.40;99.90
20714;DHT22;10518;50.742;4.226;2023-02-28T07:48:41;2.50;99.90
20714;DHT22;10518;50.742;4.226;2023-02-28T07:51:07;2.60;99.90
20714;DHT22;10518;50.742;4.226;2023-02-28T07:53:32;2.50;99.90
20714;DHT22;10518;50.742;4.226;2023-02-28T07:56:00;2.80;99.90
20714;DHT22;10518;50.742;4.226;2023-02-28T07:58:26;2.90;99.90
20714;DHT22;10518;50.742;4.226;2023-02-28T08:00:52;2.70;99.90
20714;DHT22;10518;50.742;4.226;2023-02-28T08:03:19;2.70;99.90
20714;DHT22;10518;50.742;4.226;2023-02-28T08:05:47;2.40;99.90
20714;DHT22;10518;50.742;4.226;2023-02-28T08:08:13;2.30;99.90
20714;DHT22;10518;50.742;4.226;2023-02-28T08:10:39;2.50;99.90
20714;DHT22;10518;50.742;4.226;2023-02-28T08:13:05;2.40;99.90
20714;DHT22;10518;50.742;4.226;2023-02-28T08:15:31;2.30;99.90
20714;DHT22;10518;50.742;4.226;2023-02-28T08:17:57;2.20;99.90
20714;DHT22;10518;50.742;4.226;2023-02-28T08:20:23;2.20;99.90
20714;DHT22;10518;50.742;4.226;2023-02-28T08:22:49;2.40;99.90
20714;DHT22;10518;50.742;4.226;2023-02-28T08:25:16;2.50;99.90
20714;DHT22;10518;50.742;4.226;2023-02-28T08:27:41;2.50;99.90
20714;DHT22;10518;50.742;4.226;2023-02-28T08:30:10;2.60;99.90
20714;DHT22;10518;50.742;4.226;2023-02-28T08:32:35;2.70;99.90
20714;DHT22;10518;50.742;4.226;2023-02-28T08:35:01;2.70;99.90
20714;DHT22;10518;50.742;4.226;2023-02-28T08:37:28;2.60;99.90
20714;DHT22;10518;50.742;4.226;2023-02-28T08:39:53;2.60;99.90
20714;DHT22;10518;50.742;4.226;2023-02-28T08:42:19;2.60;99.90
20714;DHT22;10518;50.742;4.226;2023-02-28T08:44:45;2.70;99.90
20714;DHT22;10518;50.742;4.226;2023-02-28T08:47:11;2.80;99.90
20714;DHT22;10518;50.742;4.226;2023-02-28T08:49:37;2.80;99.90
20714;DHT22;10518;50.742;4.226;2023-02-28T08:52:03;2.90;99.90
20714;DHT22;10518;50.742;4.226;2023-02-28T08:54:28;3.00;99.90
20714;DHT22;10518;50.742;4.226;2023-02-28T08:56:57;3.10;99.90
20714;DHT22;10518;50.742;4.226;2023-02-28T08:59:23;3.10;99.90
20714;DHT22;10518;50.742;4.226;2023-02-28T09:01:48;3.10;99.90
20714;DHT22;10518;50.742;4.226;2023-02-28T09:04:14;3.10;99.90
20714;DHT22;10518;50.742;4.226;2023-02-28T09:06:40;3.00;99.90
20714;DHT22;10518;50.742;4.226;2023-02-28T09:09:06;3.10;99.90
20714;DHT22;10518;50.742;4.226;2023-02-28T09:11:33;3.10;99.90
20714;DHT22;10518;50.742;4.226;2023-02-28T09:14:00;3.20;99.90
20714;DHT22;10518;50.742;4.226;2023-02-28T09:16:28;3.20;99.90
20714;DHT22;10518;50.742;4.226;2023-02-28T09:18:54;3.10;99.90
20714;DHT22;10518;50.742;4.226;2023-02-28T09:21:20;3.10;99.90
20714;DHT22;10518;50.742;4.226;2023-02-28T09:23:47;3.20;99.90
20714;DHT22;10518;50.742;4.226;2023-02-28T09:26:15;3.10;99.90
20714;DHT22;10518;50.742;4.226;2023-02-28T09:28:41;3.10;99.90
20714;DHT22;10518;50.742;4.226;2023-02-28T09:31:10;3.40;99.90
20714;DHT22;10518;50.742;4.226;2023-02-28T09:33:36;3.30;99.90
20714;DHT22;10518;50.742;4.226;2023-02-28T09:36:03;3.40;99.90
20714;DHT22;10518;50.742;4.226;2023-02-28T09:38:29;3.40;99.90
20714;DHT22;10518;50.742;4.226;2023-02-28T09:41:24;3.20;99.90
20714;DHT22;10518;50.742;4.226;2023-02-28T09:44:01;3.20;99.90
20714;DHT22;10518;50.742;4.226;2023-02-28T09:46:43;3.20;99.90
20714;DHT22;10518;50.742;4.226;2023-02-28T09:49:17;3.10;99.90
20714;DHT22;10518;50.742;4.226;2023-02-28T09:52:00;3.30;99.90
20714;DHT22;10518;50.742;4.226;2023-02-28T09:54:29;3.20;99.90
20714;DHT22;10518;50.742;4.226;2023-02-28T10:05:14;3.50;99.90
20714;DHT22;10518;50.742;4.226;2023-02-28T10:10:50;3.40;99.90
20714;DHT22;10518;50.742;4.226;2023-02-28T10:15:56;3.60;99.90
20714;DHT22;10518;50.742;4.226;2023-02-28T10:18:27;3.60;99.90
20714;DHT22;10518;50.742;4.226;2023-02-28T10:20:56;3.60;99.90
20714;DHT22;10518;50.742;4.226;2023-02-28T10:25:58;3.80;99.90
20714;DHT22;10518;50.742;4.226;2023-02-28T10:28:25;3.70;99.90
20714;DHT22;10518;50.742;4.226;2023-02-28T10:30:53;3.70;99.90
20714;DHT22;10518;50.742;4.226;2023-02-28T10:33:24;3.70;99.90
20714;DHT22;10518;50.742;4.226;2023-02-28T10:35:51;3.70;99.90
20714;DHT22;10518;50.742;4.226;2023-02-28T10:38:31;3.80;99.90
20714;DHT22;10518;50.742;4.226;2023-02-28T10:41:06;3.80;99.90
20714;DHT22;10518;50.742;4.226;2023-02-28T10:43:34;3.80;99.90
20714;DHT22;10518;50.742;4.226;2023-02-28T10:48:34;3.70;99.90
20714;DHT22;10518;50.742;4.226;2023-02-28T10:51:02;3.80;99.90
20714;DHT22;10518;50.742;4.226;2023-02-28T10:53:49;3.80;99.90
20714;DHT22;10518;50.742;4.226;2023-02-28T10:56:18;3.90;99.90
20714;DHT22;10518;50.742;4.226;2023-02-28T10:58:59;3.90;99.90
20714;DHT22;10518;50.742;4.226;2023-02-28T11:01:36;3.70;99.90
20714;DHT22;10518;50.742;4.226;2023-02-28T11:04:23;3.70;99.90
20714;DHT22;10518;50.742;4.226;2023-02-28T11:07:03;3.70;99.90
20714;DHT22;10518;50.742;4.226;2023-02-28T11:09:37;3.90;99.90
20714;DHT22;10518;50.742;4.226;2023-02-28T11:12:19;4.00;99.90
20714;DHT22;10518;50.742;4.226;2023-02-28T11:14:52;3.90;99.90
20714;DHT22;10518;50.742;4.226;2023-02-28T11:17:28;4.10;99.90
20714;DHT22;10518;50.742;4.226;2023-02-28T11:20:01;4.20;99.90
20714;DHT22;10518;50.742;4.226;2023-02-28T11:22:32;4.10;99.90
20714;DHT22;10518;50.742;4.226;2023-02-28T11:25:22;4.10;99.90
20714;DHT22;10518;50.742;4.226;2023-02-28T11:27:54;4.10;99.90
20714;DHT22;10518;50.742;4.226;2023-02-28T11:32:59;4.10;99.90
20714;DHT22;10518;50.742;4.226;2023-02-28T11:35:38;4.10;99.90
20714;DHT22;10518;50.742;4.226;2023-02-28T11:38:09;4.20;99.90
20714;DHT22;10518;50.742;4.226;2023-02-28T11:40:46;4.10;99.90
20714;DHT22;10518;50.742;4.226;2023-02-28T11:43:25;4.20;99.90
20714;DHT22;10518;50.742;4.226;2023-02-28T11:48:58;4.20;99.90
20714;DHT22;10518;50.742;4.226;2023-02-28T12:05:50;4.30;99.90
20714;DHT22;10518;50.742;4.226;2023-02-28T12:11:29;4.40;99.90
20714;DHT22;10518;50.742;4.226;2023-02-28T12:19:26;4.20;99.90
20714;DHT22;10518;50.742;4.226;2023-02-28T12:22:16;4.30;99.90
20714;DHT22;10518;50.742;4.226;2023-02-28T12:27:39;4.30;99.90
20714;DHT22;10518;50.742;4.226;2023-02-28T12:30:26;4.40;99.90
20714;DHT22;10518;50.742;4.226;2023-02-28T12:32:58;4.40;99.90
20714;DHT22;10518;50.742;4.226;2023-02-28T12:35:32;4.40;99.90
20714;DHT22;10518;50.742;4.226;2023-02-28T12:38:14;4.40;99.90
20714;DHT22;10518;50.742;4.226;2023-02-28T12:40:55;4.30;99.90
20714;DHT22;10518;50.742;4.226;2023-02-28T12:43:22;4.40;99.90
20714;DHT22;10518;50.742;4.226;2023-02-28T12:46:06;4.40;99.90
20714;DHT22;10518;50.742;4.226;2023-02-28T12:48:37;4.50;99.90
20714;DHT22;10518;50.742;4.226;2023-02-28T12:51:06;4.50;99.90
20714;DHT22;10518;50.742;4.226;2023-02-28T12:53:43;4.70;99.90
20714;DHT22;10518;50.742;4.226;2023-02-28T12:56:30;4.80;99.90
20714;DHT22;10518;50.742;4.226;2023-02-28T12:59:03;4.50;99.90
20714;DHT22;10518;50.742;4.226;2023-02-28T13:02:16;4.50;99.90
20714;DHT22;10518;50.742;4.226;2023-02-28T13:05:22;4.60;99.90
20714;DHT22;10518;50.742;4.226;2023-02-28T13:08:20;4.70;99.90
20714;DHT22;10518;50.742;4.226;2023-02-28T13:10:51;4.70;99.90
20714;DHT22;10518;50.742;4.226;2023-02-28T13:13:22;4.70;99.90
20714;DHT22;10518;50.742;4.226;2023-02-28T13:16:06;4.70;99.90
20714;DHT22;10518;50.742;4.226;2023-02-28T13:21:07;4.60;99.90
20714;DHT22;10518;50.742;4.226;2023-02-28T13:24:03;4.60;99.90
20714;DHT22;10518;50.742;4.226;2023-02-28T13:39:59;4.80;99.90
20714;DHT22;10518;50.742;4.226;2023-02-28T13:47:50;4.70;99.90
20714;DHT22;10518;50.742;4.226;2023-02-28T14:06:38;5.30;99.90
20714;DHT22;10518;50.742;4.226;2023-02-28T14:11:38;5.10;99.90
20714;DHT22;10518;50.742;4.226;2023-02-28T14:14:06;5.10;99.90
20714;DHT22;10518;50.742;4.226;2023-02-28T14:16:47;5.10;99.90
20714;DHT22;10518;50.742;4.226;2023-02-28T14:19:22;5.10;99.90
20714;DHT22;10518;50.742;4.226;2023-02-28T14:24:57;4.90;99.90
20714;DHT22;10518;50.742;4.226;2023-02-28T14:33:25;5.20;99.90
20714;DHT22;10518;50.742;4.226;2023-02-28T14:36:18;5.10;99.90
20714;DHT22;10518;50.742;4.226;2023-02-28T14:38:46;5.20;99.90
20714;DHT22;10518;50.742;4.226;2023-02-28T14:41:41;5.30;99.90
20714;DHT22;10518;50.742;4.226;2023-02-28T14:44:33;5.20;99.90
20714;DHT22;10518;50.742;4.226;2023-02-28T14:47:02;5.20;99.90
20714;DHT22;10518;50.742;4.226;2023-02-28T14:49:42;5.10;99.90
20714;DHT22;10518;50.742;4.226;2023-02-28T14:52:28;5.20;99.90
20714;DHT22;10518;50.742;4.226;2023-02-28T14:55:00;5.20;99.90
20714;DHT22;10518;50.742;4.226;2023-02-28T14:57:31;5.30;99.90
20714;DHT22;10518;50.742;4.226;2023-02-28T15:00:31;5.10;99.90
20714;DHT22;10518;50.742;4.226;2023-02-28T15:02:57;5.10;99.90
20714;DHT22;10518;50.742;4.226;2023-02-28T15:05:27;5.10;99.90
20714;DHT22;10518;50.742;4.226;2023-02-28T15:08:12;5.10;99.90
20714;DHT22;10518;50.742;4.226;2023-02-28T15:10:41;5.10;99.90
20714;DHT22;10518;50.742;4.226;2023-02-28T15:13:12;5.10;99.90
20714;DHT22;10518;50.742;4.226;2023-02-28T15:18:23;5.10;99.90
20714;DHT22;10518;50.742;4.226;2023-02-28T15:20:50;5.20;99.90
20714;DHT22;10518;50.742;4.226;2023-02-28T15:23:16;5.10;99.90
20714;DHT22;10518;50.742;4.226;2023-02-28T15:25:42;5.00;99.90
20714;DHT22;10518;50.742;4.226;2023-02-28T15:28:26;5.00;99.90
20714;DHT22;10518;50.742;4.226;2023-02-28T15:30:59;5.20;99.90
20714;DHT22;10518;50.742;4.226;2023-02-28T15:33:27;5.10;99.90
20714;DHT22;10518;50.742;4.226;2023-02-28T15:36:12;5.10;99.90
20714;DHT22;10518;50.742;4.226;2023-02-28T15:38:38;5.00;99.90
20714;DHT22;10518;50.742;4.226;2023-02-28T15:41:04;5.00;99.90
20714;DHT22;10518;50.742;4.226;2023-02-28T15:43:37;4.90;99.90
20714;DHT22;10518;50.742;4.226;2023-02-28T15:46:08;4.90;99.90
20714;DHT22;10518;50.742;4.226;2023-02-28T15:48:55;5.00;99.90
20714;DHT22;10518;50.742;4.226;2023-02-28T15:51:26;5.10;99.90
20714;DHT22;10518;50.742;4.226;2023-02-28T15:53:58;5.10;99.90
20714;DHT22;10518;50.742;4.226;2023-02-28T15:56:30;5.00;99.90
20714;DHT22;10518;50.742;4.226;2023-02-28T15:59:06;4.90;99.90
20714;DHT22;10518;50.742;4.226;2023-02-28T16:01:37;4.90;99.90
20714;DHT22;10518;50.742;4.226;2023-02-28T16:04:16;4.80;99.90
20714;DHT22;10518;50.742;4.226;2023-02-28T16:09:23;4.90;99.90
20714;DHT22;10518;50.742;4.226;2023-02-28T16:11:52;5.00;99.90
20714;DHT22;10518;50.742;4.226;2023-02-28T16:14:21;5.00;99.90
20714;DHT22;10518;50.742;4.226;2023-02-28T16:16:51;4.90;99.90
20714;DHT22;10518;50.742;4.226;2023-02-28T16:19:17;4.80;99.90
20714;DHT22;10518;50.742;4.226;2023-02-28T16:21:43;5.00;99.90
20714;DHT22;10518;50.742;4.226;2023-02-28T16:24:09;4.90;99.90
20714;DHT22;10518;50.742;4.226;2023-02-28T16:26:35;5.00;99.90
20714;DHT22;10518;50.742;4.226;2023-02-28T16:29:02;4.80;99.90
20714;DHT22;10518;50.742;4.226;2023-02-28T16:31:28;4.90;99.90
20714;DHT22;10518;50.742;4.226;2023-02-28T16:33:54;5.00;99.90
20714;DHT22;10518;50.742;4.226;2023-02-28T16:36:22;5.00;99.90
20714;DHT22;10518;50.742;4.226;2023-02-28T16:38:50;5.00;99.90
20714;DHT22;10518;50.742;4.226;2023-02-28T16:41:24;5.10;99.90
20714;DHT22;10518;50.742;4.226;2023-02-28T16:43:52;4.90;99.90
20714;DHT22;10518;50.742;4.226;2023-02-28T16:46:19;4.80;99.90
20714;DHT22;10518;50.742;4.226;2023-02-28T16:48:46;4.70;99.90
20714;DHT22;10518;50.742;4.226;2023-02-28T16:51:15;4.60;99.90
20714;DHT22;10518;50.742;4.226;2023-02-28T16:53:42;4.90;99.90
20714;DHT22;10518;50.742;4.226;2023-02-28T16:58:41;4.80;99.90
20714;DHT22;10518;50.742;4.226;2023-02-28T17:01:07;4.80;99.90
20714;DHT22;10518;50.742;4.226;2023-02-28T17:03:34;4.80;99.90
20714;DHT22;10518;50.742;4.226;2023-02-28T17:06:03;4.80;99.90
20714;DHT22;10518;50.742;4.226;2023-02-28T17:08:29;4.60;99.90
20714;DHT22;10518;50.742;4.226;2023-02-28T17:10:57;4.60;99.90
20714;DHT22;10518;50.742;4.226;2023-02-28T17:13:23;4.60;99.90
20714;DHT22;10518;50.742;4.226;2023-02-28T17:15:48;4.70;99.90
20714;DHT22;10518;50.742;4.226;2023-02-28T17:18:16;4.70;99.90
20714;DHT22;10518;50.742;4.226;2023-02-28T17:20:44;4.60;99.90
20714;DHT22;10518;50.742;4.226;2023-02-28T17:23:10;4.60;99.90
20714;DHT22;10518;50.742;4.226;2023-02-28T17:25:36;4.40;99.90
20714;DHT22;10518;50.742;4.226;2023-02-28T17:28:02;4.20;99.90
20714;DHT22;10518;50.742;4.226;2023-02-28T17:30:28;4.30;99.90
20714;DHT22;10518;50.742;4.226;2023-02-28T17:32:54;4.40;99.90
20714;DHT22;10518;50.742;4.226;2023-02-28T17:35:20;4.30;99.90
20714;DHT22;10518;50.742;4.226;2023-02-28T17:37:46;4.20;99.90
20714;DHT22;10518;50.742;4.226;2023-02-28T17:40:21;4.10;99.90
20714;DHT22;10518;50.742;4.226;2023-02-28T17:42:47;4.10;99.90
20714;DHT22;10518;50.742;4.226;2023-02-28T17:45:14;4.20;99.90
20714;DHT22;10518;50.742;4.226;2023-02-28T17:47:42;4.40;99.90
20714;DHT22;10518;50.742;4.226;2023-02-28T17:50:15;4.30;99.90
20714;DHT22;10518;50.742;4.226;2023-02-28T17:52:41;4.20;99.90
20714;DHT22;10518;50.742;4.226;2023-02-28T17:55:08;4.10;99.90
20714;DHT22;10518;50.742;4.226;2023-02-28T17:57:33;4.10;99.90
20714;DHT22;10518;50.742;4.226;2023-02-28T17:59:59;4.10;99.90
20714;DHT22;10518;50.742;4.226;2023-02-28T18:02:25;4.10;99.90
20714;DHT22;10518;50.742;4.226;2023-02-28T18:04:52;4.00;99.90
20714;DHT22;10518;50.742;4.226;2023-02-28T18:07:19;4.10;99.90
20714;DHT22;10518;50.742;4.226;2023-02-28T18:09:46;3.90;99.90
20714;DHT22;10518;50.742;4.226;2023-02-28T18:12:11;3.90;99.90
20714;DHT22;10518;50.742;4.226;2023-02-28T18:14:37;4.00;99.90